Time;durP1;ratioP1;P1;durP2;ratioP2;P2;SDS_P1;SDS_P2;PMS_P1;PMS_P2;Temp;Humidity;BMP_temperature;BMP_pressure;BME280_temperature;BME280_humidity;BME280_pressure;Samples;Min_cycle;Max_cycle;Signal;HPM_P1;HPM_P2
2023/09/21 00:02:13;;;;;;;4.78;2.13;;;;;;;;;;4955029;28;20181;-67
2023/09/21 00:04:39;;;;;;;4.50;2.40;;;;;;;;;;4955335;28;20581;-65
2023/09/21 00:07:05;;;;;;;5.53;2.30;;;;;;;;;;4962572;28;20389;-67
2023/09/21 00:09:32;;;;;;;4.05;2.13;;;;;;;;;;4974633;28;20042;-67
2023/09/21 00:11:57;;;;;;;10.25;2.67;;;;;;;;;;4974359;28;20042;-67
2023/09/21 00:14:23;;;;;;;4.45;2.30;;;;;;;;;;4974460;28;20027;-66
2023/09/21 00:16:48;;;;;;;5.70;2.40;;;;;;;;;;4974413;28;20387;-64
2023/09/21 00:19:14;;;;;;;6.40;2.20;;;;;;;;;;4974369;28;20104;-66
2023/09/21 00:21:39;;;;;;;4.95;2.05;;;;;;;;;;4973902;28;20037;-67
2023/09/21 00:24:06;;;;;;;5.40;2.20;;;;;;;;;;4974282;28;20034;-66
2023/09/21 00:26:34;;;;;;;4.43;1.95;;;;;;;;;;4974149;28;20062;-66
2023/09/21 00:29:02;;;;;;;5.55;2.33;;;;;;;;;;4974195;28;20061;-63
2023/09/21 00:31:29;;;;;;;5.78;2.35;;;;;;;;;;4974279;28;20035;-66
2023/09/21 00:33:54;;;;;;;3.65;2.10;;;;;;;;;;4974151;28;20357;-65
2023/09/21 00:36:21;;;;;;;6.70;2.35;;;;;;;;;;4973971;28;20092;-64
2023/09/21 00:38:47;;;;;;;6.00;2.10;;;;;;;;;;4974176;28;20432;-65
2023/09/21 00:41:12;;;;;;;7.78;2.72;;;;;;;;;;4955601;28;20035;-64
2023/09/21 00:43:38;;;;;;;6.15;2.13;;;;;;;;;;4954806;28;20401;-64
2023/09/21 00:46:04;;;;;;;4.70;2.10;;;;;;;;;;4954637;28;20090;-63
2023/09/21 00:48:36;;;;;;;3.10;1.90;;;;;;;;;;4954719;28;20043;-64
2023/09/21 00:51:07;;;;;;;4.53;2.47;;;;;;;;;;4954476;28;20038;-64
2023/09/21 00:53:34;;;;;;;6.68;2.20;;;;;;;;;;4956499;28;20039;-64
2023/09/21 00:56:08;;;;;;;4.35;1.95;;;;;;;;;;4958701;28;20075;-66
2023/09/21 00:58:36;;;;;;;4.38;2.08;;;;;;;;;;4958715;28;20031;-64
2023/09/21 01:01:02;;;;;;;5.43;2.40;;;;;;;;;;4958319;28;20526;-64
2023/09/21 01:03:28;;;;;;;4.45;2.45;;;;;;;;;;4958585;28;20114;-64
2023/09/21 01:05:54;;;;;;;5.50;2.20;;;;;;;;;;4958452;28;20385;-67
2023/09/21 01:08:28;;;;;;;3.95;2.30;;;;;;;;;;4976391;28;20503;-66
2023/09/21 01:10:55;;;;;;;2.97;1.90;;;;;;;;;;4977942;28;20132;-65
2023/09/21 01:13:20;;;;;;;5.30;2.05;;;;;;;;;;4977933;28;20030;-64
2023/09/21 01:15:58;;;;;;;3.25;1.90;;;;;;;;;;4977649;28;20094;-65
2023/09/21 01:18:24;;;;;;;4.40;2.42;;;;;;;;;;4976184;28;20023;-66
2023/09/21 01:20:50;;;;;;;5.63;2.33;;;;;;;;;;4977536;28;20035;-66
2023/09/21 01:23:20;;;;;;;6.63;2.60;;;;;;;;;;4977445;28;20469;-64
2023/09/21 01:25:50;;;;;;;3.60;2.00;;;;;;;;;;4977348;28;20358;-66
2023/09/21 01:28:19;;;;;;;4.03;2.70;;;;;;;;;;4977395;28;20485;-67
2023/09/21 01:30:45;;;;;;;6.07;2.13;;;;;;;;;;4977419;28;20035;-66
2023/09/21 01:33:11;;;;;;;5.10;2.28;;;;;;;;;;4977183;28;20106;-67
2023/09/21 01:35:43;;;;;;;5.72;2.53;;;;;;;;;;4977239;28;20045;-66
2023/09/21 01:38:09;;;;;;;4.85;2.38;;;;;;;;;;4977370;28;20058;-64
2023/09/21 01:40:38;;;;;;;4.07;2.35;;;;;;;;;;4963689;28;20027;-64
2023/09/21 01:43:14;;;;;;;5.20;2.07;;;;;;;;;;4957867;28;20030;-64
2023/09/21 01:45:40;;;;;;;5.07;2.13;;;;;;;;;;4957798;28;20031;-68
2023/09/21 01:48:10;;;;;;;5.55;2.35;;;;;;;;;;4957583;28;20038;-68
2023/09/21 01:50:40;;;;;;;4.35;2.28;;;;;;;;;;4957708;28;20406;-66
2023/09/21 01:53:09;;;;;;;3.47;2.25;;;;;;;;;;4957750;28;20023;-67
2023/09/21 01:55:36;;;;;;;4.32;2.33;;;;;;;;;;4957659;28;20034;-66
2023/09/21 01:58:04;;;;;;;4.78;2.40;;;;;;;;;;4957828;28;20023;-67
2023/09/21 02:00:34;;;;;;;3.92;2.17;;;;;;;;;;4957487;28;20039;-67
2023/09/21 02:03:06;;;;;;;4.22;2.15;;;;;;;;;;4957171;28;20074;-67
2023/09/21 02:05:33;;;;;;;9.05;2.33;;;;;;;;;;4956669;28;20380;-67
2023/09/21 02:07:59;;;;;;;6.97;2.20;;;;;;;;;;4972489;28;20034;-67
2023/09/21 02:10:25;;;;;;;4.20;2.10;;;;;;;;;;4976680;28;20033;-67
2023/09/21 02:12:55;;;;;;;4.13;2.20;;;;;;;;;;4976684;28;20118;-67
2023/09/21 02:15:22;;;;;;;5.65;2.25;;;;;;;;;;4976696;28;20027;-67
2023/09/21 02:17:48;;;;;;;5.50;2.40;;;;;;;;;;4976429;28;20027;-64
2023/09/21 02:20:14;;;;;;;4.97;2.25;;;;;;;;;;4976518;28;20025;-64
2023/09/21 02:22:53;;;;;;;4.55;2.20;;;;;;;;;;4976457;28;20424;-66
2023/09/21 02:25:19;;;;;;;6.80;2.80;;;;;;;;;;4976292;28;20039;-66
2023/09/21 02:27:47;;;;;;;4.15;2.40;;;;;;;;;;4976411;28;20105;-64
2023/09/21 02:30:16;;;;;;;3.47;2.35;;;;;;;;;;4976395;28;20066;-65
2023/09/21 02:32:42;;;;;;;5.88;2.20;;;;;;;;;;4976139;28;20047;-65
2023/09/21 02:35:13;;;;;;;4.38;2.13;;;;;;;;;;4976343;28;20459;-64
2023/09/21 02:37:39;;;;;;;4.90;2.20;;;;;;;;;;4976330;28;20031;-65
2023/09/21 02:40:14;;;;;;;3.35;2.13;;;;;;;;;;4966555;28;20035;-64
2023/09/21 02:42:43;;;;;;;4.30;2.13;;;;;;;;;;4956763;28;20024;-66
2023/09/21 02:45:10;;;;;;;4.25;2.55;;;;;;;;;;4956508;28;20031;-64
2023/09/21 02:47:37;;;;;;;5.60;2.50;;;;;;;;;;4956728;28;20067;-64
2023/09/21 02:50:14;;;;;;;6.40;2.33;;;;;;;;;;4956709;28;20028;-65
2023/09/21 02:52:43;;;;;;;4.28;2.70;;;;;;;;;;4956719;28;20430;-66
2023/09/21 02:55:08;;;;;;;4.88;2.38;;;;;;;;;;4956466;28;20031;-66
2023/09/21 02:57:34;;;;;;;4.80;2.50;;;;;;;;;;4956472;28;20032;-68
2023/09/21 03:00:08;;;;;;;4.15;2.50;;;;;;;;;;4956396;28;20377;-66
2023/09/21 03:02:34;;;;;;;3.92;2.10;;;;;;;;;;4956259;28;20055;-66
2023/09/21 03:05:00;;;;;;;9.18;2.50;;;;;;;;;;4956325;28;20078;-66
2023/09/21 03:07:27;;;;;;;4.28;2.72;;;;;;;;;;4966910;28;20089;-67
2023/09/21 03:09:53;;;;;;;6.03;2.35;;;;;;;;;;4975633;28;20049;-67
2023/09/21 03:12:20;;;;;;;4.18;2.30;;;;;;;;;;4975460;28;20038;-66
2023/09/21 03:14:46;;;;;;;3.95;2.85;;;;;;;;;;4975353;28;20042;-66
2023/09/21 03:17:14;;;;;;;3.72;2.47;;;;;;;;;;4974387;28;20042;-65
2023/09/21 03:19:40;;;;;;;7.28;2.30;;;;;;;;;;4975521;28;20092;-65
2023/09/21 03:22:06;;;;;;;6.20;2.75;;;;;;;;;;4975246;28;20081;-66
2023/09/21 03:24:31;;;;;;;5.63;2.92;;;;;;;;;;4975204;28;20034;-66
2023/09/21 03:26:56;;;;;;;6.07;2.80;;;;;;;;;;4975270;28;20038;-64
2023/09/21 03:29:22;;;;;;;4.32;2.47;;;;;;;;;;4975023;28;20094;-67
2023/09/21 03:31:47;;;;;;;5.03;2.58;;;;;;;;;;4975172;28;20404;-64
2023/09/21 03:34:13;;;;;;;4.95;2.80;;;;;;;;;;4975174;28;20034;-64
2023/09/21 03:36:39;;;;;;;5.60;2.63;;;;;;;;;;4974970;28;20047;-65
2023/09/21 03:39:10;;;;;;;5.47;2.55;;;;;;;;;;4973385;28;20358;-67
2023/09/21 03:41:36;;;;;;;4.00;2.50;;;;;;;;;;4955582;29;20043;-65
2023/09/21 03:44:03;;;;;;;5.88;2.92;;;;;;;;;;4954237;28;20020;-64
2023/09/21 03:46:29;;;;;;;6.20;2.35;;;;;;;;;;4955539;28;20035;-64
2023/09/21 03:48:56;;;;;;;8.18;2.80;;;;;;;;;;4955956;28;20034;-65
2023/09/21 03:51:21;;;;;;;5.68;2.53;;;;;;;;;;4955612;28;20405;-64
2023/09/21 03:53:46;;;;;;;6.90;2.42;;;;;;;;;;4955548;28;20082;-64
2023/09/21 03:56:12;;;;;;;5.03;2.78;;;;;;;;;;4955433;28;20059;-66
2023/09/21 03:58:37;;;;;;;5.28;3.03;;;;;;;;;;4955277;28;20055;-66
2023/09/21 04:01:04;;;;;;;4.13;2.50;;;;;;;;;;4955119;28;20437;-67
2023/09/21 04:03:30;;;;;;;4.47;2.65;;;;;;;;;;4955375;28;20066;-66
2023/09/21 04:06:01;;;;;;;8.73;3.10;;;;;;;;;;4955269;29;20480;-64
2023/09/21 04:08:26;;;;;;;3.70;2.67;;;;;;;;;;4973809;28;20030;-66
2023/09/21 04:10:58;;;;;;;4.15;2.63;;;;;;;;;;4974539;28;20165;-66
2023/09/21 04:13:23;;;;;;;6.70;2.63;;;;;;;;;;4974316;28;20468;-67
2023/09/21 04:15:48;;;;;;;6.22;2.65;;;;;;;;;;4974324;28;20077;-64
2023/09/21 04:18:14;;;;;;;5.22;2.90;;;;;;;;;;4974403;28;20019;-65
2023/09/21 04:20:40;;;;;;;4.60;2.92;;;;;;;;;;4974209;28;20030;-63
2023/09/21 04:23:06;;;;;;;4.20;2.40;;;;;;;;;;4974348;28;20381;-65
2023/09/21 04:25:32;;;;;;;5.00;2.70;;;;;;;;;;4974064;28;20030;-65
2023/09/21 04:27:58;;;;;;;5.82;2.85;;;;;;;;;;4973728;28;20109;-65
2023/09/21 04:30:24;;;;;;;5.32;2.63;;;;;;;;;;4974091;28;20110;-64
2023/09/21 04:32:50;;;;;;;7.07;2.95;;;;;;;;;;4974322;28;20038;-66
2023/09/21 04:35:18;;;;;;;8.13;2.90;;;;;;;;;;4974172;28;20033;-66
2023/09/21 04:37:47;;;;;;;4.65;2.67;;;;;;;;;;4974011;28;20493;-63
2023/09/21 04:40:13;;;;;;;5.10;2.97;;;;;;;;;;4963467;28;20144;-64
2023/09/21 04:42:45;;;;;;;9.35;2.95;;;;;;;;;;4954508;28;20114;-65
2023/09/21 04:45:12;;;;;;;6.68;2.80;;;;;;;;;;4954828;28;20023;-66
2023/09/21 04:47:43;;;;;;;6.00;2.70;;;;;;;;;;4954731;28;20070;-65
2023/09/21 04:50:16;;;;;;;5.80;2.80;;;;;;;;;;4954619;28;20031;-63
2023/09/21 04:52:43;;;;;;;9.07;3.55;;;;;;;;;;4954606;29;20039;-64
2023/09/21 04:55:09;;;;;;;5.43;3.10;;;;;;;;;;4954654;28;20031;-67
2023/09/21 04:57:36;;;;;;;7.00;2.83;;;;;;;;;;4954361;28;20373;-66
2023/09/21 05:00:07;;;;;;;5.43;3.10;;;;;;;;;;4954497;28;20027;-66
2023/09/21 05:02:33;;;;;;;5.78;2.70;;;;;;;;;;4954369;28;20062;-64
2023/09/21 05:04:59;;;;;;;5.60;3.03;;;;;;;;;;4954478;28;20038;-66
2023/09/21 05:07:24;;;;;;;5.53;2.80;;;;;;;;;;4964881;28;20552;-64
2023/09/21 05:09:50;;;;;;;5.60;3.05;;;;;;;;;;4973602;28;20138;-64
2023/09/21 05:12:18;;;;;;;7.07;3.08;;;;;;;;;;4973666;28;20023;-65
2023/09/21 05:14:47;;;;;;;7.65;2.75;;;;;;;;;;4973736;28;20077;-65
2023/09/21 05:17:13;;;;;;;6.47;3.17;;;;;;;;;;4973786;28;20023;-64
2023/09/21 05:19:40;;;;;;;5.07;3.33;;;;;;;;;;4973664;28;20033;-65
2023/09/21 05:22:05;;;;;;;3.88;2.90;;;;;;;;;;4972310;28;20035;-67
2023/09/21 05:24:32;;;;;;;5.68;2.65;;;;;;;;;;4973153;28;20077;-65
2023/09/21 05:26:58;;;;;;;4.43;2.78;;;;;;;;;;4972179;28;20027;-64
2023/09/21 05:29:23;;;;;;;8.45;3.35;;;;;;;;;;4973608;28;20373;-66
2023/09/21 05:31:49;;;;;;;6.07;2.80;;;;;;;;;;4973599;28;20034;-65
2023/09/21 05:34:19;;;;;;;6.20;3.00;;;;;;;;;;4973527;28;20030;-64
2023/09/21 05:36:46;;;;;;;4.38;2.90;;;;;;;;;;4973587;28;20077;-62
2023/09/21 05:39:14;;;;;;;6.93;3.00;;;;;;;;;;4970837;28;20512;-67
2023/09/21 05:41:41;;;;;;;5.30;2.70;;;;;;;;;;4957319;29;20035;-65
2023/09/21 05:44:06;;;;;;;7.30;3.00;;;;;;;;;;4957875;28;20494;-65
2023/09/21 05:46:32;;;;;;;4.88;2.83;;;;;;;;;;4957596;28;20070;-63
2023/09/21 05:48:59;;;;;;;6.28;2.67;;;;;;;;;;4957729;28;20110;-65
2023/09/21 05:51:25;;;;;;;5.43;2.65;;;;;;;;;;4957800;28;20030;-66
2023/09/21 05:53:52;;;;;;;4.90;3.00;;;;;;;;;;4957188;28;20035;-64
2023/09/21 05:56:19;;;;;;;8.43;2.90;;;;;;;;;;4957427;28;20042;-61
2023/09/21 05:58:46;;;;;;;4.35;2.50;;;;;;;;;;4957451;28;20027;-65
2023/09/21 06:01:13;;;;;;;7.65;2.67;;;;;;;;;;4957141;29;20089;-67
2023/09/21 06:03:39;;;;;;;5.63;2.83;;;;;;;;;;4957372;28;20599;-63
2023/09/21 06:06:07;;;;;;;13.40;2.45;;;;;;;;;;4957450;28;20031;-65
2023/09/21 06:08:33;;;;;;;5.70;2.72;;;;;;;;;;4957212;28;20074;-61
2023/09/21 06:10:58;;;;;;;12.07;3.97;;;;;;;;;;4957260;29;20043;-65
2023/09/21 06:13:25;;;;;;;8.30;2.70;;;;;;;;;;4957340;28;20027;-63
2023/09/21 06:15:50;;;;;;;5.15;2.55;;;;;;;;;;4957219;28;20455;-61
2023/09/21 06:18:17;;;;;;;4.57;2.55;;;;;;;;;;4957140;28;20050;-65
2023/09/21 06:20:43;;;;;;;4.43;2.50;;;;;;;;;;4957111;28;20468;-62
2023/09/21 06:23:09;;;;;;;4.78;2.60;;;;;;;;;;4956802;28;20035;-61
2023/09/21 06:25:35;;;;;;;3.97;2.40;;;;;;;;;;4970257;28;20027;-62
2023/09/21 06:28:00;;;;;;;4.47;2.30;;;;;;;;;;4976209;28;20033;-62
2023/09/21 06:30:26;;;;;;;5.55;2.40;;;;;;;;;;4976147;28;20027;-62
2023/09/21 06:32:55;;;;;;;4.55;2.35;;;;;;;;;;4976218;28;20476;-62
2023/09/21 06:35:24;;;;;;;4.72;2.20;;;;;;;;;;4975914;28;20037;-62
2023/09/21 06:37:54;;;;;;;6.03;2.42;;;;;;;;;;4975937;28;20480;-62
2023/09/21 06:40:26;;;;;;;3.97;2.33;;;;;;;;;;4964515;28;20476;-62
2023/09/21 06:42:51;;;;;;;3.78;2.50;;;;;;;;;;4956700;28;20035;-65
2023/09/21 06:45:18;;;;;;;4.38;2.30;;;;;;;;;;4956769;28;20424;-62
2023/09/21 06:47:44;;;;;;;6.40;2.50;;;;;;;;;;4956668;28;20027;-62
2023/09/21 06:50:13;;;;;;;3.92;2.35;;;;;;;;;;4956743;28;20485;-62
2023/09/21 06:52:38;;;;;;;3.77;2.30;;;;;;;;;;4956337;28;20034;-62
2023/09/21 06:55:05;;;;;;;6.38;2.22;;;;;;;;;;4956568;28;20404;-61
2023/09/21 06:57:34;;;;;;;8.73;2.35;;;;;;;;;;4956482;28;20020;-62
2023/09/21 07:00:01;;;;;;;4.15;2.47;;;;;;;;;;4956489;28;20357;-61
2023/09/21 07:02:26;;;;;;;5.35;2.90;;;;;;;;;;4956076;28;20054;-62
2023/09/21 07:04:53;;;;;;;7.15;2.55;;;;;;;;;;4956058;28;20457;-62
2023/09/21 07:07:18;;;;;;;6.35;2.25;;;;;;;;;;4965603;28;20034;-62
2023/09/21 07:09:44;;;;;;;7.70;2.60;;;;;;;;;;4975574;28;20468;-65
2023/09/21 07:12:11;;;;;;;5.88;2.35;;;;;;;;;;4975483;28;20027;-62
2023/09/21 07:14:37;;;;;;;6.97;2.47;;;;;;;;;;4975508;28;20481;-64
2023/09/21 07:17:05;;;;;;;7.30;2.20;;;;;;;;;;4975285;28;20037;-64
2023/09/21 07:19:31;;;;;;;5.28;2.35;;;;;;;;;;4975480;28;20023;-62
2023/09/21 07:21:56;;;;;;;3.70;2.22;;;;;;;;;;4974908;28;20081;-64
2023/09/21 07:24:22;;;;;;;4.47;2.33;;;;;;;;;;4975028;28;20114;-61
2023/09/21 07:26:49;;;;;;;6.15;2.85;;;;;;;;;;4975073;28;20027;-62
2023/09/21 07:29:14;;;;;;;6.30;2.38;;;;;;;;;;4975015;28;20035;-62
2023/09/21 07:31:40;;;;;;;3.53;2.42;;;;;;;;;;4975167;28;20349;-62
2023/09/21 07:34:06;;;;;;;4.80;2.25;;;;;;;;;;4975117;28;20034;-62
2023/09/21 07:36:35;;;;;;;3.72;2.28;;;;;;;;;;4974739;28;20046;-63
2023/09/21 07:39:03;;;;;;;6.30;2.25;;;;;;;;;;4974183;28;20023;-65
2023/09/21 07:41:29;;;;;;;7.10;2.63;;;;;;;;;;4955621;29;20047;-62
2023/09/21 07:43:54;;;;;;;5.60;2.17;;;;;;;;;;4955499;28;20410;-61
2023/09/21 07:46:20;;;;;;;5.05;2.65;;;;;;;;;;4955552;28;20050;-64
2023/09/21 07:48:48;;;;;;;7.38;2.45;;;;;;;;;;4955437;28;20078;-62
2023/09/21 07:51:13;;;;;;;8.38;2.60;;;;;;;;;;4955227;28;20033;-61
2023/09/21 07:53:40;;;;;;;6.07;2.47;;;;;;;;;;4955405;28;20110;-61
2023/09/21 07:56:06;;;;;;;8.27;2.30;;;;;;;;;;4955390;28;20461;-61
2023/09/21 07:58:31;;;;;;;4.45;2.30;;;;;;;;;;4955305;28;20039;-62
2023/09/21 08:00:57;;;;;;;6.00;2.50;;;;;;;;;;4955025;28;20042;-62
2023/09/21 08:03:26;;;;;;;5.43;2.42;;;;;;;;;;4954920;28;20067;-62
2023/09/21 08:05:55;;;;;;;4.53;2.13;;;;;;;;;;4954909;28;20023;-63
2023/09/21 08:08:21;;;;;;;5.13;2.20;;;;;;;;;;4972759;28;20038;-61
2023/09/21 08:10:47;;;;;;;6.13;2.80;;;;;;;;;;4974485;28;20485;-65
2023/09/21 08:13:13;;;;;;;7.60;2.83;;;;;;;;;;4974303;28;20034;-61
2023/09/21 08:15:38;;;;;;;3.70;2.50;;;;;;;;;;4974326;28;20031;-64
2023/09/21 08:18:07;;;;;;;6.15;2.22;;;;;;;;;;4974281;28;20117;-63
2023/09/21 08:20:33;;;;;;;4.53;2.38;;;;;;;;;;4973891;28;20576;-65
2023/09/21 08:22:58;;;;;;;6.70;2.17;;;;;;;;;;4974231;28;20031;-64
2023/09/21 08:25:24;;;;;;;7.25;2.10;;;;;;;;;;4974057;28;20027;-62
2023/09/21 08:27:49;;;;;;;4.32;2.28;;;;;;;;;;4974246;28;20380;-62
2023/09/21 08:30:15;;;;;;;4.38;2.33;;;;;;;;;;4974067;28;20532;-62
2023/09/21 08:32:41;;;;;;;4.20;2.22;;;;;;;;;;4974182;28;20129;-62
2023/09/21 08:35:07;;;;;;;4.63;2.05;;;;;;;;;;4973951;28;20061;-61
2023/09/21 08:37:34;;;;;;;4.03;1.77;;;;;;;;;;4974047;28;20122;-62
2023/09/21 08:40:05;;;;;;;4.63;2.17;;;;;;;;;;4965129;28;20031;-61
2023/09/21 08:42:31;;;;;;;3.40;2.03;;;;;;;;;;4954624;28;20057;-62
2023/09/21 08:44:57;;;;;;;4.43;2.15;;;;;;;;;;4954716;28;20110;-62
2023/09/21 08:47:23;;;;;;;3.55;2.20;;;;;;;;;;4954734;28;20030;-62
2023/09/21 08:49:49;;;;;;;4.20;2.20;;;;;;;;;;4954632;28;20022;-63
2023/09/21 08:52:14;;;;;;;3.90;2.28;;;;;;;;;;4954710;28;20374;-61
2023/09/21 08:54:41;;;;;;;5.93;2.10;;;;;;;;;;4954633;28;20027;-65
2023/09/21 08:57:10;;;;;;;5.57;2.20;;;;;;;;;;4953171;28;20492;-61
2023/09/21 08:59:40;;;;;;;7.53;2.38;;;;;;;;;;4954411;28;20374;-62
2023/09/21 09:02:08;;;;;;;;;;;;;;;;;;4953393;29;20055;-62
2023/09/21 09:04:33;;;;;;;4.85;2.13;;;;;;;;;;4954338;28;19918;-62
2023/09/21 09:06:59;;;;;;;5.25;2.10;;;;;;;;;;4961276;28;20033;-64
2023/09/21 09:09:25;;;;;;;7.93;2.28;;;;;;;;;;4973866;28;20029;-62
2023/09/21 09:11:51;;;;;;;4.35;2.10;;;;;;;;;;4973781;28;20077;-62
2023/09/21 09:14:19;;;;;;;4.28;2.03;;;;;;;;;;4973765;28;20492;-62
2023/09/21 09:16:46;;;;;;;3.58;1.67;;;;;;;;;;4975915;28;20034;-62
2023/09/21 09:19:12;;;;;;;6.13;2.28;;;;;;;;;;4977590;28;20130;-63
2023/09/21 09:21:37;;;;;;;4.25;2.03;;;;;;;;;;4977266;28;20207;-62
2023/09/21 09:24:04;;;;;;;5.32;1.90;;;;;;;;;;4977339;28;20026;-62
2023/09/21 09:26:31;;;;;;;6.85;2.22;;;;;;;;;;4977303;28;20031;-62
2023/09/21 09:29:04;;;;;;;2.80;1.60;;;;;;;;;;4977210;28;20031;-65
2023/09/21 09:31:30;;;;;;;3.13;1.95;;;;;;;;;;4977097;28;20035;-63
2023/09/21 09:33:57;;;;;;;4.97;1.90;;;;;;;;;;4977290;28;20026;-62
2023/09/21 09:36:24;;;;;;;4.68;2.10;;;;;;;;;;4977136;28;20166;-61
2023/09/21 09:38:50;;;;;;;4.40;2.08;;;;;;;;;;4977237;28;20473;-63
2023/09/21 09:41:18;;;;;;;4.25;2.25;;;;;;;;;;4958368;28;20046;-63
2023/09/21 09:43:50;;;;;;;5.45;2.22;;;;;;;;;;4957789;28;20031;-62
2023/09/21 09:46:19;;;;;;;3.10;1.90;;;;;;;;;;4957463;28;20334;-62
2023/09/21 09:48:46;;;;;;;2.97;2.00;;;;;;;;;;4957656;28;20019;-64
2023/09/21 09:51:16;;;;;;;5.43;2.00;;;;;;;;;;4957678;28;20327;-62
2023/09/21 09:53:42;;;;;;;4.18;2.20;;;;;;;;;;4957635;28;20117;-62
2023/09/21 09:56:09;;;;;;;5.13;2.25;;;;;;;;;;4957475;28;20491;-62
2023/09/21 09:58:42;;;;;;;5.78;1.92;;;;;;;;;;4957372;28;20454;-62
2023/09/21 10:01:12;;;;;;;3.85;2.05;;;;;;;;;;4956935;28;20113;-61
2023/09/21 10:03:43;;;;;;;6.82;1.95;;;;;;;;;;4956271;29;20433;-65
2023/09/21 10:06:09;;;;;;;6.50;2.30;;;;;;;;;;4957542;28;20141;-63
2023/09/21 10:08:39;;;;;;;5.28;1.90;;;;;;;;;;4976713;28;20133;-62
2023/09/21 10:11:09;;;;;;;4.05;2.08;;;;;;;;;;4975366;28;20038;-61
2023/09/21 10:13:47;;;;;;;5.45;1.90;;;;;;;;;;4976709;28;20473;-63
2023/09/21 10:16:13;;;;;;;5.32;2.00;;;;;;;;;;4976444;28;20030;-62
2023/09/21 10:18:40;;;;;;;5.60;2.22;;;;;;;;;;4975258;28;20122;-62
2023/09/21 10:21:29;;;;;;;4.00;2.10;;;;;;;;;;4976450;28;20022;-62
2023/09/21 10:24:13;;;;;;;5.63;2.03;;;;;;;;;;4976352;28;20122;-63
2023/09/21 10:26:43;;;;;;;3.17;1.70;;;;;;;;;;4956576;28;20036;-61
2023/09/21 10:29:12;;;;;;;4.38;2.20;;;;;;;;;;4967079;28;20066;-62
2023/09/21 10:31:55;;;;;;;6.90;1.83;;;;;;;;;;4976266;28;20026;-62
2023/09/21 10:34:24;;;;;;;3.17;1.90;;;;;;;;;;4976079;28;20023;-62
2023/09/21 10:37:13;;;;;;;3.07;1.60;;;;;;;;;;4976219;28;20031;-62
2023/09/21 10:39:42;;;;;;;4.93;1.77;;;;;;;;;;4970182;28;20027;-62
2023/09/21 10:42:07;;;;;;;8.15;1.90;;;;;;;;;;4956706;28;20061;-63
2023/09/21 10:45:04;;;;;;;6.18;1.80;;;;;;;;;;4956286;28;20034;-61
2023/09/21 10:47:51;;;;;;;4.60;1.90;;;;;;;;;;4956627;29;20038;-62
2023/09/21 10:50:21;;;;;;;5.25;1.90;;;;;;;;;;4956597;28;20086;-63
2023/09/21 10:52:47;;;;;;;;;;;;;;;;;;4957038;28;20031;-64
2023/09/21 10:55:16;;;;;;;6.97;2.10;;;;;;;;;;4956429;29;19921;-61
2023/09/21 10:57:42;;;;;;;5.05;2.00;;;;;;;;;;4956507;28;20434;-61
2023/09/21 11:00:20;;;;;;;3.60;1.65;;;;;;;;;;4956292;28;20035;-64
2023/09/21 11:02:46;;;;;;;5.68;1.90;;;;;;;;;;4956273;28;20055;-64
2023/09/21 11:05:16;;;;;;;5.05;2.00;;;;;;;;;;4956204;28;20031;-65
2023/09/21 11:07:43;;;;;;;5.72;1.70;;;;;;;;;;4968801;28;20070;-62
2023/09/21 11:10:11;;;;;;;2.22;1.58;;;;;;;;;;4974134;28;20057;-65
2023/09/21 11:12:38;;;;;;;2.70;1.70;;;;;;;;;;4975114;28;20444;-62
2023/09/21 11:15:06;;;;;;;3.53;1.60;;;;;;;;;;4975343;28;20035;-66
2023/09/21 11:17:32;;;;;;;5.15;1.48;;;;;;;;;;4975369;28;20381;-64
2023/09/21 11:19:58;;;;;;;3.97;1.80;;;;;;;;;;4975533;28;20096;-64
2023/09/21 11:22:24;;;;;;;5.30;2.13;;;;;;;;;;4975167;28;20022;-63
2023/09/21 11:24:50;;;;;;;6.80;1.85;;;;;;;;;;4975110;28;20034;-65
2023/09/21 11:27:16;;;;;;;8.55;1.95;;;;;;;;;;4975063;28;20384;-63
2023/09/21 11:29:43;;;;;;;7.03;1.90;;;;;;;;;;4975143;28;20038;-65
2023/09/21 11:32:14;;;;;;;4.97;2.08;;;;;;;;;;4975234;28;20126;-66
2023/09/21 11:34:40;;;;;;;2.78;1.90;;;;;;;;;;4975246;28;20393;-66
2023/09/21 11:37:08;;;;;;;6.25;1.80;;;;;;;;;;4974574;28;20027;-63
2023/09/21 11:39:42;;;;;;;4.65;1.70;;;;;;;;;;4969398;28;20035;-65
2023/09/21 11:42:08;;;;;;;3.45;1.35;;;;;;;;;;4955394;28;20035;-63
2023/09/21 11:44:36;;;;;;;5.18;1.50;;;;;;;;;;4955348;28;20031;-63
2023/09/21 11:47:02;;;;;;;3.30;1.77;;;;;;;;;;4955539;29;20446;-65
2023/09/21 11:49:42;;;;;;;3.80;1.77;;;;;;;;;;4955494;28;20023;-65
2023/09/21 11:52:11;;;;;;;2.63;1.42;;;;;;;;;;4955580;28;20484;-63
2023/09/21 11:54:41;;;;;;;2.30;1.20;;;;;;;;;;4955435;28;20027;-65
2023/09/21 11:57:09;;;;;;;;;;;;;;;;;;4954155;28;20593;-65
2023/09/21 11:59:39;;;;;;;3.40;1.58;;;;;;;;;;4955328;28;19947;-65
2023/09/21 12:02:09;;;;;;;;;;;;;;;;;;4955566;28;20109;-63
2023/09/21 12:04:35;;;;;;;3.95;1.30;;;;;;;;;;4955126;29;19922;-63
2023/09/21 12:07:01;;;;;;;4.88;1.75;;;;;;;;;;4962261;28;20046;-65
2023/09/21 12:09:27;;;;;;;5.85;1.63;;;;;;;;;;4974466;28;20027;-65
2023/09/21 12:11:54;;;;;;;6.20;1.70;;;;;;;;;;4974116;28;20077;-65
2023/09/21 12:14:21;;;;;;;4.13;1.77;;;;;;;;;;4974357;28;20370;-63
2023/09/21 12:16:50;;;;;;;4.22;1.58;;;;;;;;;;4974351;28;20018;-65
2023/09/21 12:19:18;;;;;;;8.60;1.63;;;;;;;;;;4974202;28;20054;-63
2023/09/21 12:21:45;;;;;;;5.43;1.80;;;;;;;;;;4974139;28;20383;-65
2023/09/21 12:24:10;;;;;;;2.72;1.50;;;;;;;;;;4988820;28;20060;-66
2023/09/21 12:26:36;;;;;;;7.32;1.65;;;;;;;;;;4973909;28;20361;-63
2023/09/21 12:29:02;;;;;;;6.18;1.95;;;;;;;;;;4974044;28;20137;-63
2023/09/21 12:31:28;;;;;;;2.45;1.52;;;;;;;;;;4974187;28;20398;-65
2023/09/21 12:33:55;;;;;;;3.88;1.52;;;;;;;;;;4974127;28;20437;-63
2023/09/21 12:36:23;;;;;;;5.80;1.50;;;;;;;;;;4974019;28;20034;-66
2023/09/21 12:38:50;;;;;;;5.57;1.60;;;;;;;;;;4973958;28;20035;-65
2023/09/21 12:41:16;;;;;;;4.00;1.60;;;;;;;;;;4954895;28;20098;-65
2023/09/21 12:43:42;;;;;;;4.40;1.80;;;;;;;;;;4954753;28;20429;-65
2023/09/21 12:46:08;;;;;;;6.72;1.85;;;;;;;;;;4954691;28;20436;-63
2023/09/21 12:48:36;;;;;;;2.65;1.52;;;;;;;;;;4954305;28;20102;-65
2023/09/21 12:51:04;;;;;;;3.90;1.73;;;;;;;;;;4954692;28;20058;-65
2023/09/21 12:53:30;;;;;;;3.33;1.45;;;;;;;;;;4954595;28;20038;-63
2023/09/21 12:55:56;;;;;;;5.45;2.05;;;;;;;;;;4954374;28;20035;-65
2023/09/21 12:58:23;;;;;;;5.13;1.75;;;;;;;;;;4954623;28;20027;-63
2023/09/21 13:00:49;;;;;;;3.15;1.67;;;;;;;;;;4954109;28;20039;-66
2023/09/21 13:03:15;;;;;;;2.95;1.50;;;;;;;;;;4954407;29;20034;-64
2023/09/21 13:05:44;;;;;;;6.03;1.88;;;;;;;;;;4954276;28;20031;-65
2023/09/21 13:08:11;;;;;;;4.72;1.83;;;;;;;;;;4970814;28;20037;-63
2023/09/21 13:10:37;;;;;;;3.42;1.60;;;;;;;;;;4973489;28;20039;-65
2023/09/21 13:13:04;;;;;;;5.78;1.60;;;;;;;;;;4973698;28;20086;-65
2023/09/21 13:15:30;;;;;;;6.20;1.80;;;;;;;;;;4973539;28;20416;-65
2023/09/21 13:17:55;;;;;;;7.90;1.85;;;;;;;;;;4973759;28;20027;-65
2023/09/21 13:20:20;;;;;;;3.67;1.60;;;;;;;;;;4973758;28;20548;-65
2023/09/21 13:22:47;;;;;;;2.08;1.35;;;;;;;;;;4973608;28;20035;-66
2023/09/21 13:25:12;;;;;;;3.72;1.90;;;;;;;;;;4973215;28;20110;-66
2023/09/21 13:27:38;;;;;;;3.45;1.67;;;;;;;;;;4973590;28;20106;-65
2023/09/21 13:30:07;;;;;;;3.75;1.67;;;;;;;;;;4973566;28;20039;-65
2023/09/21 13:32:33;;;;;;;6.25;1.83;;;;;;;;;;4973641;28;20073;-63
2023/09/21 13:34:59;;;;;;;3.65;1.48;;;;;;;;;;4973290;28;20095;-63
2023/09/21 13:37:24;;;;;;;4.03;1.67;;;;;;;;;;4973215;28;20091;-63
2023/09/21 13:39:49;;;;;;;6.15;1.75;;;;;;;;;;4966118;28;20082;-64
2023/09/21 13:42:15;;;;;;;4.80;1.70;;;;;;;;;;4954010;28;20047;-64
2023/09/21 13:44:41;;;;;;;3.03;1.65;;;;;;;;;;4953910;28;20106;-63
2023/09/21 13:47:06;;;;;;;5.13;1.85;;;;;;;;;;4954113;28;20062;-65
2023/09/21 13:49:35;;;;;;;4.82;1.60;;;;;;;;;;4953968;28;20035;-65
2023/09/21 13:52:01;;;;;;;6.55;1.45;;;;;;;;;;4953769;28;20469;-65
2023/09/21 13:54:27;;;;;;;2.72;1.50;;;;;;;;;;4953919;28;20154;-66
2023/09/21 13:56:52;;;;;;;6.38;1.58;;;;;;;;;;4953887;28;20110;-66
2023/09/21 13:59:20;;;;;;;3.63;1.50;;;;;;;;;;4953794;28;20024;-65
2023/09/21 14:01:47;;;;;;;4.35;1.63;;;;;;;;;;4955392;28;20580;-65
2023/09/21 14:04:14;;;;;;;3.50;1.50;;;;;;;;;;4957313;28;20124;-66
2023/09/21 14:06:40;;;;;;;4.03;1.50;;;;;;;;;;4961432;28;20035;-65
2023/09/21 14:09:07;;;;;;;3.17;1.70;;;;;;;;;;4976651;28;20030;-65
2023/09/21 14:11:33;;;;;;;4.00;1.52;;;;;;;;;;4976663;28;20037;-66
2023/09/21 14:14:00;;;;;;;4.13;1.65;;;;;;;;;;4976635;28;20121;-66
2023/09/21 14:16:26;;;;;;;3.65;1.65;;;;;;;;;;4976548;28;20034;-65
2023/09/21 14:18:51;;;;;;;3.35;1.80;;;;;;;;;;4976524;28;20023;-63
2023/09/21 14:21:17;;;;;;;5.72;1.90;;;;;;;;;;4976112;28;20396;-65
2023/09/21 14:23:42;;;;;;;4.65;1.90;;;;;;;;;;4976234;28;20113;-65
2023/09/21 14:26:09;;;;;;;4.47;2.40;;;;;;;;;;4976141;28;20496;-66
2023/09/21 14:28:35;;;;;;;3.63;1.70;;;;;;;;;;4976081;28;20113;-65
2023/09/21 14:31:01;;;;;;;6.00;1.67;;;;;;;;;;4976310;28;20034;-65
2023/09/21 14:33:27;;;;;;;7.35;1.95;;;;;;;;;;4976235;28;20027;-67
2023/09/21 14:35:54;;;;;;;3.25;1.70;;;;;;;;;;4975816;28;20110;-66
2023/09/21 14:38:20;;;;;;;4.15;1.65;;;;;;;;;;4975791;28;20038;-66
2023/09/21 14:40:46;;;;;;;5.32;1.40;;;;;;;;;;4961108;28;20035;-67
2023/09/21 14:43:11;;;;;;;5.18;1.55;;;;;;;;;;4955347;28;20444;-66
2023/09/21 14:45:37;;;;;;;4.82;1.75;;;;;;;;;;4956442;28;20031;-67